<?xml version="1.0" encoding="UTF-8" standalone="no" ?>
<gpx xmlns="http://www.topografix.com/GPX/1/1" xmlns:xsi="http://www.w3.org/2001/XMLSchema-instance" xsi:schemaLocation="http://www.topografix.com/GPX/1/1 http://www.topografix.com/GPX/1/1/gpx.xsd" version="1.1" creator="VisuGPX - https://www.visugpx.com">
  <metadata>
    <name>Col de l'Alpette</name>
    <desc><![CDATA[Col de l'Alpette - Pas des Barres - Plateau du Granier]]></desc>
  </metadata>
  <trk>
    <name><![CDATA[2016-07-09 09:54]]></name>
    <desc><![CDATA[<p>Heure de départ: 07/09/2016 09:54</p><p>Heure d'arrivée: 07/09/2016 15:15</p><p>Distance: 8,3 km (05:21)</p><p>Temps déplacement: 02:34</p><p>Vitesse moyenne: 1,54 km/h</p><p>Vitesse moyenne mouv.: 3,21 km/h</p><p>Vitesse Max.: 31,93km/h</p><p>Altitude minimale: 1082 m</p><p>Altitude maximale: 1865 m</p><p>Vitesse de montée: 297,5 m/h</p><p>Vitesse de descente: -512,7 m/h</p><p>Gain d'altitude: 990 m</p><p>Perte d'altitude: -962 m</p><p>Temps de montée: 03:19</p><p>Temps de descente: 01:52</p><hr align="center" width="480" style="height: 2px; width: 517px"/>]]></desc>
    <trkseg>
      <trkpt lat="45.44129" lon="5.90579">
        <ele>1089.88</ele>
        <time>2016-07-09T07:54:14Z</time>
      </trkpt>
      <trkpt lat="45.44148" lon="5.90575">
        <ele>1091.79</ele>
        <time>2016-07-09T07:54:49Z</time>
      </trkpt>
      <trkpt lat="45.44167" lon="5.90566">
        <ele>1091.84</ele>
        <time>2016-07-09T07:55:01Z</time>
      </trkpt>
      <trkpt lat="45.44188" lon="5.90565">
        <ele>1087.45</ele>
        <time>2016-07-09T07:55:10Z</time>
      </trkpt>
      <trkpt lat="45.44207" lon="5.90571">
        <ele>1082.87</ele>
        <time>2016-07-09T07:55:27Z</time>
      </trkpt>
      <trkpt lat="45.44226" lon="5.90574">
        <ele>1085.44</ele>
        <time>2016-07-09T07:55:40Z</time>
      </trkpt>
      <trkpt lat="45.44242" lon="5.90586">
        <ele>1086.84</ele>
        <time>2016-07-09T07:56:00Z</time>
      </trkpt>
      <trkpt lat="45.44259" lon="5.90596">
        <ele>1088.92</ele>
        <time>2016-07-09T07:56:13Z</time>
      </trkpt>
      <trkpt lat="45.44275" lon="5.90609">
        <ele>1090.69</ele>
        <time>2016-07-09T07:56:26Z</time>
      </trkpt>
      <trkpt lat="45.44293" lon="5.90617">
        <ele>1098.67</ele>
        <time>2016-07-09T07:56:39Z</time>
      </trkpt>
      <trkpt lat="45.44309" lon="5.90631">
        <ele>1093.93</ele>
        <time>2016-07-09T07:56:57Z</time>
      </trkpt>
      <trkpt lat="45.44325" lon="5.90643">
        <ele>1098.84</ele>
        <time>2016-07-09T07:57:12Z</time>
      </trkpt>
      <trkpt lat="45.44341" lon="5.90658">
        <ele>1099.91</ele>
        <time>2016-07-09T07:57:28Z</time>
      </trkpt>
      <trkpt lat="45.44358" lon="5.9067">
        <ele>1099.48</ele>
        <time>2016-07-09T07:57:46Z</time>
      </trkpt>
      <trkpt lat="45.4437" lon="5.9069">
        <ele>1101.92</ele>
        <time>2016-07-09T07:58:01Z</time>
      </trkpt>
      <trkpt lat="45.44388" lon="5.9069">
        <ele>1101.44</ele>
        <time>2016-07-09T07:58:14Z</time>
      </trkpt>
      <trkpt lat="45.44406" lon="5.90697">
        <ele>1106.83</ele>
        <time>2016-07-09T07:58:28Z</time>
      </trkpt>
      <trkpt lat="45.4442" lon="5.90714">
        <ele>1111.78</ele>
        <time>2016-07-09T07:58:42Z</time>
      </trkpt>
      <trkpt lat="45.44421" lon="5.90741">
        <ele>1115.75</ele>
        <time>2016-07-09T07:59:05Z</time>
      </trkpt>
      <trkpt lat="45.44415" lon="5.90766">
        <ele>1116.88</ele>
        <time>2016-07-09T07:59:39Z</time>
      </trkpt>
      <trkpt lat="45.44401" lon="5.90783">
        <ele>1117.68</ele>
        <time>2016-07-09T07:59:59Z</time>
      </trkpt>
      <trkpt lat="45.4438" lon="5.90799">
        <ele>1118.07</ele>
        <time>2016-07-09T08:00:31Z</time>
      </trkpt>
      <trkpt lat="45.4437" lon="5.90819">
        <ele>1117.1</ele>
        <time>2016-07-09T08:00:40Z</time>
      </trkpt>
      <trkpt lat="45.44377" lon="5.90844">
        <ele>1117.24</ele>
        <time>2016-07-09T08:01:00Z</time>
      </trkpt>
      <trkpt lat="45.44382" lon="5.9087">
        <ele>1111.88</ele>
        <time>2016-07-09T08:01:17Z</time>
      </trkpt>
      <trkpt lat="45.44372" lon="5.90894">
        <ele>1113.92</ele>
        <time>2016-07-09T08:01:44Z</time>
      </trkpt>
      <trkpt lat="45.44371" lon="5.90921">
        <ele>1119.99</ele>
        <time>2016-07-09T08:02:11Z</time>
      </trkpt>
      <trkpt lat="45.44356" lon="5.90937">
        <ele>1114.03</ele>
        <time>2016-07-09T08:02:35Z</time>
      </trkpt>
      <trkpt lat="45.44364" lon="5.90962">
        <ele>1126.8</ele>
        <time>2016-07-09T08:02:57Z</time>
      </trkpt>
      <trkpt lat="45.4436" lon="5.9099">
        <ele>1136.68</ele>
        <time>2016-07-09T08:03:32Z</time>
      </trkpt>
      <trkpt lat="45.44346" lon="5.91007">
        <ele>1144.31</ele>
        <time>2016-07-09T08:03:47Z</time>
      </trkpt>
      <trkpt lat="45.4435" lon="5.91034">
        <ele>1154.23</ele>
        <time>2016-07-09T08:04:21Z</time>
      </trkpt>
      <trkpt lat="45.44337" lon="5.91054">
        <ele>1155.09</ele>
        <time>2016-07-09T08:04:49Z</time>
      </trkpt>
      <trkpt lat="45.4432" lon="5.91069">
        <ele>1152.32</ele>
        <time>2016-07-09T08:04:54Z</time>
      </trkpt>
      <trkpt lat="45.4432" lon="5.91096">
        <ele>1163.68</ele>
        <time>2016-07-09T08:06:34Z</time>
      </trkpt>
      <trkpt lat="45.44313" lon="5.9112">
        <ele>1157.26</ele>
        <time>2016-07-09T08:06:41Z</time>
      </trkpt>
      <trkpt lat="45.44308" lon="5.91147">
        <ele>1161.95</ele>
        <time>2016-07-09T08:06:58Z</time>
      </trkpt>
      <trkpt lat="45.44322" lon="5.91165">
        <ele>1163.16</ele>
        <time>2016-07-09T08:07:09Z</time>
      </trkpt>
      <trkpt lat="45.44332" lon="5.91189">
        <ele>1167.92</ele>
        <time>2016-07-09T08:07:37Z</time>
      </trkpt>
      <trkpt lat="45.44346" lon="5.91206">
        <ele>1181.67</ele>
        <time>2016-07-09T08:08:09Z</time>
      </trkpt>
      <trkpt lat="45.44356" lon="5.91227">
        <ele>1195.07</ele>
        <time>2016-07-09T08:09:19Z</time>
      </trkpt>
      <trkpt lat="45.44368" lon="5.91249">
        <ele>1197.23</ele>
        <time>2016-07-09T08:09:34Z</time>
      </trkpt>
      <trkpt lat="45.4439" lon="5.91251">
        <ele>1199.83</ele>
        <time>2016-07-09T08:09:43Z</time>
      </trkpt>
      <trkpt lat="45.44407" lon="5.91263">
        <ele>1204.07</ele>
        <time>2016-07-09T08:10:04Z</time>
      </trkpt>
      <trkpt lat="45.44392" lon="5.91281">
        <ele>1209.28</ele>
        <time>2016-07-09T08:11:29Z</time>
      </trkpt>
      <trkpt lat="45.4439" lon="5.9131">
        <ele>1207.9</ele>
        <time>2016-07-09T08:11:38Z</time>
      </trkpt>
      <trkpt lat="45.44374" lon="5.91332">
        <ele>1208.84</ele>
        <time>2016-07-09T08:12:01Z</time>
      </trkpt>
      <trkpt lat="45.44366" lon="5.9136">
        <ele>1207.47</ele>
        <time>2016-07-09T08:12:11Z</time>
      </trkpt>
      <trkpt lat="45.44348" lon="5.91369">
        <ele>1217.84</ele>
        <time>2016-07-09T08:12:28Z</time>
      </trkpt>
      <trkpt lat="45.44339" lon="5.91392">
        <ele>1224.96</ele>
        <time>2016-07-09T08:12:43Z</time>
      </trkpt>
      <trkpt lat="45.44325" lon="5.91413">
        <ele>1230.16</ele>
        <time>2016-07-09T08:13:19Z</time>
      </trkpt>
      <trkpt lat="45.44305" lon="5.9142">
        <ele>1231.72</ele>
        <time>2016-07-09T08:13:28Z</time>
      </trkpt>
      <trkpt lat="45.44324" lon="5.91432">
        <ele>1233.08</ele>
        <time>2016-07-09T08:13:39Z</time>
      </trkpt>
      <trkpt lat="45.44322" lon="5.9146">
        <ele>1246.87</ele>
        <time>2016-07-09T08:14:58Z</time>
      </trkpt>
      <trkpt lat="45.44321" lon="5.91486">
        <ele>1263.31</ele>
        <time>2016-07-09T08:16:09Z</time>
      </trkpt>
      <trkpt lat="45.44319" lon="5.91513">
        <ele>1272.59</ele>
        <time>2016-07-09T08:16:26Z</time>
      </trkpt>
      <trkpt lat="45.443" lon="5.91526">
        <ele>1275.62</ele>
        <time>2016-07-09T08:16:44Z</time>
      </trkpt>
      <trkpt lat="45.44299" lon="5.91554">
        <ele>1281.92</ele>
        <time>2016-07-09T08:17:07Z</time>
      </trkpt>
      <trkpt lat="45.4428" lon="5.91558">
        <ele>1295.88</ele>
        <time>2016-07-09T08:18:21Z</time>
      </trkpt>
      <trkpt lat="45.44276" lon="5.91585">
        <ele>1299.82</ele>
        <time>2016-07-09T08:18:26Z</time>
      </trkpt>
      <trkpt lat="45.44259" lon="5.91594">
        <ele>1317.89</ele>
        <time>2016-07-09T08:19:24Z</time>
      </trkpt>
      <trkpt lat="45.44269" lon="5.91618">
        <ele>1334.63</ele>
        <time>2016-07-09T08:20:46Z</time>
      </trkpt>
      <trkpt lat="45.44289" lon="5.9162">
        <ele>1348.83</ele>
        <time>2016-07-09T08:21:27Z</time>
      </trkpt>
      <trkpt lat="45.44303" lon="5.91637">
        <ele>1354.1</ele>
        <time>2016-07-09T08:22:25Z</time>
      </trkpt>
      <trkpt lat="45.44311" lon="5.9166">
        <ele>1363.92</ele>
        <time>2016-07-09T08:23:55Z</time>
      </trkpt>
      <trkpt lat="45.44324" lon="5.91679">
        <ele>1372.72</ele>
        <time>2016-07-09T08:25:36Z</time>
      </trkpt>
      <trkpt lat="45.44335" lon="5.917">
        <ele>1388.59</ele>
        <time>2016-07-09T08:28:19Z</time>
      </trkpt>
      <trkpt lat="45.44331" lon="5.91727">
        <ele>1382.32</ele>
        <time>2016-07-09T08:28:32Z</time>
      </trkpt>
      <trkpt lat="45.44337" lon="5.91756">
        <ele>1398.55</ele>
        <time>2016-07-09T08:29:01Z</time>
      </trkpt>
      <trkpt lat="45.44338" lon="5.91781">
        <ele>1404.24</ele>
        <time>2016-07-09T08:31:00Z</time>
      </trkpt>
      <trkpt lat="45.44326" lon="5.9181">
        <ele>1405.29</ele>
        <time>2016-07-09T08:33:29Z</time>
      </trkpt>
      <trkpt lat="45.44327" lon="5.91837">
        <ele>1403.22</ele>
        <time>2016-07-09T08:33:34Z</time>
      </trkpt>
      <trkpt lat="45.44317" lon="5.91858">
        <ele>1411.77</ele>
        <time>2016-07-09T08:33:43Z</time>
      </trkpt>
      <trkpt lat="45.44299" lon="5.9186">
        <ele>1415.64</ele>
        <time>2016-07-09T08:33:51Z</time>
      </trkpt>
      <trkpt lat="45.4428" lon="5.91851">
        <ele>1428.62</ele>
        <time>2016-07-09T08:36:14Z</time>
      </trkpt>
      <trkpt lat="45.44268" lon="5.91831">
        <ele>1447.64</ele>
        <time>2016-07-09T08:36:30Z</time>
      </trkpt>
      <trkpt lat="45.4426" lon="5.91807">
        <ele>1457.72</ele>
        <time>2016-07-09T08:37:21Z</time>
      </trkpt>
      <trkpt lat="45.44246" lon="5.9179">
        <ele>1469.35</ele>
        <time>2016-07-09T08:39:06Z</time>
      </trkpt>
      <trkpt lat="45.44229" lon="5.91777">
        <ele>1476.62</ele>
        <time>2016-07-09T08:39:16Z</time>
      </trkpt>
      <trkpt lat="45.44224" lon="5.91801">
        <ele>1472.87</ele>
        <time>2016-07-09T08:40:07Z</time>
      </trkpt>
      <trkpt lat="45.44221" lon="5.91827">
        <ele>1501.41</ele>
        <time>2016-07-09T08:42:07Z</time>
      </trkpt>
      <trkpt lat="45.44202" lon="5.91838">
        <ele>1502.09</ele>
        <time>2016-07-09T08:43:02Z</time>
      </trkpt>
      <trkpt lat="45.44197" lon="5.91863">
        <ele>1521.62</ele>
        <time>2016-07-09T08:44:53Z</time>
      </trkpt>
      <trkpt lat="45.44182" lon="5.91878">
        <ele>1532.83</ele>
        <time>2016-07-09T08:45:15Z</time>
      </trkpt>
      <trkpt lat="45.44176" lon="5.91903">
        <ele>1533.9</ele>
        <time>2016-07-09T08:46:07Z</time>
      </trkpt>
      <trkpt lat="45.4418" lon="5.9193">
        <ele>1537.84</ele>
        <time>2016-07-09T08:46:27Z</time>
      </trkpt>
      <trkpt lat="45.44172" lon="5.91953">
        <ele>1536.88</ele>
        <time>2016-07-09T08:46:47Z</time>
      </trkpt>
      <trkpt lat="45.44176" lon="5.9198">
        <ele>1541.46</ele>
        <time>2016-07-09T08:47:02Z</time>
      </trkpt>
      <trkpt lat="45.44176" lon="5.92007">
        <ele>1539.68</ele>
        <time>2016-07-09T08:47:35Z</time>
      </trkpt>
      <trkpt lat="45.44175" lon="5.92034">
        <ele>1533.9</ele>
        <time>2016-07-09T08:47:54Z</time>
      </trkpt>
      <trkpt lat="45.44173" lon="5.9206">
        <ele>1542.72</ele>
        <time>2016-07-09T08:48:33Z</time>
      </trkpt>
      <trkpt lat="45.44173" lon="5.92086">
        <ele>1547.87</ele>
        <time>2016-07-09T08:48:56Z</time>
      </trkpt>
      <trkpt lat="45.44173" lon="5.92118">
        <ele>1533.88</ele>
        <time>2016-07-09T08:50:50Z</time>
      </trkpt>
      <trkpt lat="45.44181" lon="5.92142">
        <ele>1538.88</ele>
        <time>2016-07-09T08:51:31Z</time>
      </trkpt>
      <trkpt lat="45.44194" lon="5.92161">
        <ele>1542.87</ele>
        <time>2016-07-09T08:51:47Z</time>
      </trkpt>
      <trkpt lat="45.442" lon="5.92185">
        <ele>1543.87</ele>
        <time>2016-07-09T08:52:24Z</time>
      </trkpt>
      <trkpt lat="45.44195" lon="5.92211">
        <ele>1547.07</ele>
        <time>2016-07-09T08:53:35Z</time>
      </trkpt>
      <trkpt lat="45.44186" lon="5.92215">
        <ele>1548.88</ele>
        <time>2016-07-09T08:54:43Z</time>
      </trkpt>
      <trkpt lat="45.44189" lon="5.9224">
        <ele>1547.88</ele>
        <time>2016-07-09T08:55:36Z</time>
      </trkpt>
      <trkpt lat="45.44186" lon="5.92266">
        <ele>1548.92</ele>
        <time>2016-07-09T08:55:59Z</time>
      </trkpt>
      <trkpt lat="45.44198" lon="5.92284">
        <ele>1544.87</ele>
        <time>2016-07-09T08:56:39Z</time>
      </trkpt>
      <trkpt lat="45.44216" lon="5.92297">
        <ele>1535.97</ele>
        <time>2016-07-09T08:57:12Z</time>
      </trkpt>
      <trkpt lat="45.44229" lon="5.92316">
        <ele>1538.64</ele>
        <time>2016-07-09T08:57:41Z</time>
      </trkpt>
      <trkpt lat="45.44243" lon="5.92333">
        <ele>1540.88</ele>
        <time>2016-07-09T08:58:03Z</time>
      </trkpt>
      <trkpt lat="45.44255" lon="5.92354">
        <ele>1542.88</ele>
        <time>2016-07-09T08:58:26Z</time>
      </trkpt>
      <trkpt lat="45.44267" lon="5.92375">
        <ele>1537.91</ele>
        <time>2016-07-09T08:58:51Z</time>
      </trkpt>
      <trkpt lat="45.44278" lon="5.92395">
        <ele>1541.84</ele>
        <time>2016-07-09T08:59:11Z</time>
      </trkpt>
      <trkpt lat="45.44287" lon="5.92419">
        <ele>1542.67</ele>
        <time>2016-07-09T08:59:37Z</time>
      </trkpt>
      <trkpt lat="45.44303" lon="5.92432">
        <ele>1548.88</ele>
        <time>2016-07-09T09:00:39Z</time>
      </trkpt>
      <trkpt lat="45.44317" lon="5.92449">
        <ele>1550.8</ele>
        <time>2016-07-09T09:00:52Z</time>
      </trkpt>
      <trkpt lat="45.4433" lon="5.92468">
        <ele>1549.92</ele>
        <time>2016-07-09T09:01:06Z</time>
      </trkpt>
      <trkpt lat="45.44343" lon="5.92488">
        <ele>1549.08</ele>
        <time>2016-07-09T09:01:22Z</time>
      </trkpt>
      <trkpt lat="45.44357" lon="5.92507">
        <ele>1549.87</ele>
        <time>2016-07-09T09:01:39Z</time>
      </trkpt>
      <trkpt lat="45.44367" lon="5.9253">
        <ele>1548.09</ele>
        <time>2016-07-09T09:01:55Z</time>
      </trkpt>
      <trkpt lat="45.44375" lon="5.92554">
        <ele>1551.84</ele>
        <time>2016-07-09T09:02:09Z</time>
      </trkpt>
      <trkpt lat="45.44385" lon="5.9258">
        <ele>1553.29</ele>
        <time>2016-07-09T09:02:27Z</time>
      </trkpt>
      <trkpt lat="45.44397" lon="5.92601">
        <ele>1555.67</ele>
        <time>2016-07-09T09:02:43Z</time>
      </trkpt>
      <trkpt lat="45.44407" lon="5.92624">
        <ele>1551.87</ele>
        <time>2016-07-09T09:03:01Z</time>
      </trkpt>
      <trkpt lat="45.44422" lon="5.92643">
        <ele>1558.72</ele>
        <time>2016-07-09T09:03:23Z</time>
      </trkpt>
      <trkpt lat="45.4443" lon="5.92668">
        <ele>1520.86</ele>
        <time>2016-07-09T09:03:47Z</time>
      </trkpt>
      <trkpt lat="45.44431" lon="5.92695">
        <ele>1527.74</ele>
        <time>2016-07-09T09:04:03Z</time>
      </trkpt>
      <trkpt lat="45.44445" lon="5.92713">
        <ele>1541.89</ele>
        <time>2016-07-09T09:04:22Z</time>
      </trkpt>
      <trkpt lat="45.4446" lon="5.92728">
        <ele>1546.56</ele>
        <time>2016-07-09T09:04:35Z</time>
      </trkpt>
      <trkpt lat="45.44467" lon="5.92753">
        <ele>1544.6</ele>
        <time>2016-07-09T09:04:51Z</time>
      </trkpt>
      <trkpt lat="45.44483" lon="5.9277">
        <ele>1547.68</ele>
        <time>2016-07-09T09:05:09Z</time>
      </trkpt>
      <trkpt lat="45.445" lon="5.92778">
        <ele>1550.72</ele>
        <time>2016-07-09T09:05:39Z</time>
      </trkpt>
      <trkpt lat="45.44521" lon="5.92784">
        <ele>1550.7</ele>
        <time>2016-07-09T09:05:55Z</time>
      </trkpt>
      <trkpt lat="45.44535" lon="5.928">
        <ele>1420.8</ele>
        <time>2016-07-09T09:06:19Z</time>
      </trkpt>
      <trkpt lat="45.44557" lon="5.92804">
        <ele>1548.83</ele>
        <time>2016-07-09T09:06:35Z</time>
      </trkpt>
      <trkpt lat="45.44578" lon="5.9281">
        <ele>1549.69</ele>
        <time>2016-07-09T09:06:45Z</time>
      </trkpt>
      <trkpt lat="45.44595" lon="5.9282">
        <ele>1551.08</ele>
        <time>2016-07-09T09:07:31Z</time>
      </trkpt>
      <trkpt lat="45.44611" lon="5.92835">
        <ele>1552.07</ele>
        <time>2016-07-09T09:07:50Z</time>
      </trkpt>
      <trkpt lat="45.44629" lon="5.92842">
        <ele>1552.07</ele>
        <time>2016-07-09T09:08:09Z</time>
      </trkpt>
      <trkpt lat="45.44612" lon="5.92851">
        <ele>1556.8</ele>
        <time>2016-07-09T09:08:18Z</time>
      </trkpt>
      <trkpt lat="45.44636" lon="5.92848">
        <ele>1562.48</ele>
        <time>2016-07-09T09:08:41Z</time>
      </trkpt>
      <trkpt lat="45.44659" lon="5.92853">
        <ele>1572.88</ele>
        <time>2016-07-09T09:09:55Z</time>
      </trkpt>
      <trkpt lat="45.44682" lon="5.9285">
        <ele>1576.05</ele>
        <time>2016-07-09T09:09:58Z</time>
      </trkpt>
      <trkpt lat="45.44699" lon="5.92858">
        <ele>1575.89</ele>
        <time>2016-07-09T09:10:35Z</time>
      </trkpt>
      <trkpt lat="45.44708" lon="5.92883">
        <ele>1585.2</ele>
        <time>2016-07-09T09:10:46Z</time>
      </trkpt>
      <trkpt lat="45.44719" lon="5.92905">
        <ele>1589.47</ele>
        <time>2016-07-09T09:10:57Z</time>
      </trkpt>
      <trkpt lat="45.44732" lon="5.92931">
        <ele>1592.84</ele>
        <time>2016-07-09T09:11:12Z</time>
      </trkpt>
      <trkpt lat="45.44747" lon="5.92948">
        <ele>1595.95</ele>
        <time>2016-07-09T09:11:48Z</time>
      </trkpt>
      <trkpt lat="45.44759" lon="5.92969">
        <ele>1596.44</ele>
        <time>2016-07-09T09:11:56Z</time>
      </trkpt>
      <trkpt lat="45.44766" lon="5.92996">
        <ele>1584.1</ele>
        <time>2016-07-09T09:12:07Z</time>
      </trkpt>
      <trkpt lat="45.44779" lon="5.93015">
        <ele>1606.08</ele>
        <time>2016-07-09T09:12:51Z</time>
      </trkpt>
      <trkpt lat="45.4479" lon="5.9304">
        <ele>1604.61</ele>
        <time>2016-07-09T09:12:56Z</time>
      </trkpt>
      <trkpt lat="45.44812" lon="5.93055">
        <ele>1606.89</ele>
        <time>2016-07-09T09:13:06Z</time>
      </trkpt>
      <trkpt lat="45.44812" lon="5.93023">
        <ele>1598.66</ele>
        <time>2016-07-09T09:14:04Z</time>
      </trkpt>
      <trkpt lat="45.4483" lon="5.93019">
        <ele>1607.84</ele>
        <time>2016-07-09T09:18:26Z</time>
      </trkpt>
      <trkpt lat="45.44849" lon="5.93043">
        <ele>1625.7</ele>
        <time>2016-07-09T09:19:18Z</time>
      </trkpt>
      <trkpt lat="45.44858" lon="5.93067">
        <ele>1630.83</ele>
        <time>2016-07-09T09:20:20Z</time>
      </trkpt>
      <trkpt lat="45.44872" lon="5.93086">
        <ele>1627.92</ele>
        <time>2016-07-09T09:20:40Z</time>
      </trkpt>
      <trkpt lat="45.44884" lon="5.93106">
        <ele>1623.88</ele>
        <time>2016-07-09T09:20:57Z</time>
      </trkpt>
      <trkpt lat="45.44891" lon="5.9313">
        <ele>1625.08</ele>
        <time>2016-07-09T09:21:13Z</time>
      </trkpt>
      <trkpt lat="45.44899" lon="5.93154">
        <ele>1627.79</ele>
        <time>2016-07-09T09:21:42Z</time>
      </trkpt>
      <trkpt lat="45.44914" lon="5.93176">
        <ele>1624.9</ele>
        <time>2016-07-09T09:22:17Z</time>
      </trkpt>
      <trkpt lat="45.44924" lon="5.93199">
        <ele>1626.82</ele>
        <time>2016-07-09T09:23:29Z</time>
      </trkpt>
      <trkpt lat="45.44938" lon="5.9322">
        <ele>1626.6</ele>
        <time>2016-07-09T09:23:37Z</time>
      </trkpt>
      <trkpt lat="45.44955" lon="5.93209">
        <ele>1640.88</ele>
        <time>2016-07-09T09:28:33Z</time>
      </trkpt>
      <trkpt lat="45.44963" lon="5.93232">
        <ele>1653.21</ele>
        <time>2016-07-09T09:29:47Z</time>
      </trkpt>
      <trkpt lat="45.44975" lon="5.93252">
        <ele>1655.87</ele>
        <time>2016-07-09T09:30:16Z</time>
      </trkpt>
      <trkpt lat="45.44982" lon="5.93229">
        <ele>1664.12</ele>
        <time>2016-07-09T09:32:48Z</time>
      </trkpt>
      <trkpt lat="45.44984" lon="5.93202">
        <ele>1679.63</ele>
        <time>2016-07-09T09:34:46Z</time>
      </trkpt>
      <trkpt lat="45.45003" lon="5.93198">
        <ele>1692.91</ele>
        <time>2016-07-09T09:36:54Z</time>
      </trkpt>
      <trkpt lat="45.4499" lon="5.93177">
        <ele>1697.89</ele>
        <time>2016-07-09T09:37:38Z</time>
      </trkpt>
      <trkpt lat="45.44982" lon="5.93152">
        <ele>1698.4</ele>
        <time>2016-07-09T09:38:03Z</time>
      </trkpt>
      <trkpt lat="45.44969" lon="5.9313">
        <ele>1702.22</ele>
        <time>2016-07-09T09:38:33Z</time>
      </trkpt>
      <trkpt lat="45.44951" lon="5.9312">
        <ele>1697.48</ele>
        <time>2016-07-09T09:38:51Z</time>
      </trkpt>
      <trkpt lat="45.44946" lon="5.93092">
        <ele>1711.04</ele>
        <time>2016-07-09T09:39:56Z</time>
      </trkpt>
      <trkpt lat="45.44952" lon="5.93068">
        <ele>1720.12</ele>
        <time>2016-07-09T09:41:45Z</time>
      </trkpt>
      <trkpt lat="45.44953" lon="5.93041">
        <ele>1740.48</ele>
        <time>2016-07-09T09:42:59Z</time>
      </trkpt>
      <trkpt lat="45.44946" lon="5.93016">
        <ele>1744.83</ele>
        <time>2016-07-09T09:43:45Z</time>
      </trkpt>
      <trkpt lat="45.44939" lon="5.92992">
        <ele>1755.87</ele>
        <time>2016-07-09T09:45:37Z</time>
      </trkpt>
      <trkpt lat="45.44936" lon="5.92967">
        <ele>1761.68</ele>
        <time>2016-07-09T09:46:32Z</time>
      </trkpt>
      <trkpt lat="45.44956" lon="5.92966">
        <ele>1771.84</ele>
        <time>2016-07-09T09:47:14Z</time>
      </trkpt>
      <trkpt lat="45.44975" lon="5.92967">
        <ele>1777.69</ele>
        <time>2016-07-09T09:47:59Z</time>
      </trkpt>
      <trkpt lat="45.44994" lon="5.92969">
        <ele>1778.04</ele>
        <time>2016-07-09T09:48:23Z</time>
      </trkpt>
      <trkpt lat="45.45013" lon="5.9297">
        <ele>1777.81</ele>
        <time>2016-07-09T09:48:52Z</time>
      </trkpt>
      <trkpt lat="45.4503" lon="5.92977">
        <ele>1779.88</ele>
        <time>2016-07-09T09:49:29Z</time>
      </trkpt>
      <trkpt lat="45.45047" lon="5.92988">
        <ele>1788.84</ele>
        <time>2016-07-09T09:49:58Z</time>
      </trkpt>
      <trkpt lat="45.45065" lon="5.9298">
        <ele>1785.59</ele>
        <time>2016-07-09T09:50:21Z</time>
      </trkpt>
      <trkpt lat="45.45082" lon="5.92973">
        <ele>1782.07</ele>
        <time>2016-07-09T09:50:39Z</time>
      </trkpt>
      <trkpt lat="45.45099" lon="5.92959">
        <ele>1776.92</ele>
        <time>2016-07-09T09:51:13Z</time>
      </trkpt>
      <trkpt lat="45.45111" lon="5.92939">
        <ele>1776.73</ele>
        <time>2016-07-09T09:51:30Z</time>
      </trkpt>
      <trkpt lat="45.45125" lon="5.9292">
        <ele>1775.68</ele>
        <time>2016-07-09T09:51:58Z</time>
      </trkpt>
      <trkpt lat="45.45136" lon="5.92897">
        <ele>1775.83</ele>
        <time>2016-07-09T09:53:38Z</time>
      </trkpt>
      <trkpt lat="45.45152" lon="5.92886">
        <ele>1771.11</ele>
        <time>2016-07-09T09:53:55Z</time>
      </trkpt>
      <trkpt lat="45.45154" lon="5.92884">
        <ele>1771.88</ele>
        <time>2016-07-09T09:54:07Z</time>
      </trkpt>
      <trkpt lat="45.45165" lon="5.92864">
        <ele>1775.88</ele>
        <time>2016-07-09T09:54:58Z</time>
      </trkpt>
      <trkpt lat="45.45175" lon="5.9284">
        <ele>1774.04</ele>
        <time>2016-07-09T09:58:03Z</time>
      </trkpt>
      <trkpt lat="45.45181" lon="5.92843">
        <ele>1770.88</ele>
        <time>2016-07-09T09:58:35Z</time>
      </trkpt>
      <trkpt lat="45.45181" lon="5.92843">
        <ele>1770.88</ele>
        <time>2016-07-09T09:59:23Z</time>
      </trkpt>
      <trkpt lat="45.45182" lon="5.92814">
        <ele>1772.68</ele>
        <time>2016-07-09T10:00:12Z</time>
      </trkpt>
      <trkpt lat="45.45178" lon="5.92788">
        <ele>1774.89</ele>
        <time>2016-07-09T10:00:27Z</time>
      </trkpt>
      <trkpt lat="45.45175" lon="5.92763">
        <ele>1779.87</ele>
        <time>2016-07-09T10:00:46Z</time>
      </trkpt>
      <trkpt lat="45.45169" lon="5.92739">
        <ele>1784.59</ele>
        <time>2016-07-09T10:01:05Z</time>
      </trkpt>
      <trkpt lat="45.45168" lon="5.92713">
        <ele>1779.68</ele>
        <time>2016-07-09T10:01:26Z</time>
      </trkpt>
      <trkpt lat="45.4516" lon="5.92689">
        <ele>1779.71</ele>
        <time>2016-07-09T10:01:52Z</time>
      </trkpt>
      <trkpt lat="45.45157" lon="5.92664">
        <ele>1788.88</ele>
        <time>2016-07-09T10:02:27Z</time>
      </trkpt>
      <trkpt lat="45.45151" lon="5.92639">
        <ele>1788.88</ele>
        <time>2016-07-09T10:03:16Z</time>
      </trkpt>
      <trkpt lat="45.45154" lon="5.92614">
        <ele>1797.03</ele>
        <time>2016-07-09T10:04:08Z</time>
      </trkpt>
      <trkpt lat="45.4516" lon="5.92587">
        <ele>1793.48</ele>
        <time>2016-07-09T10:04:43Z</time>
      </trkpt>
      <trkpt lat="45.45159" lon="5.92562">
        <ele>1790.88</ele>
        <time>2016-07-09T10:05:07Z</time>
      </trkpt>
      <trkpt lat="45.45164" lon="5.92534">
        <ele>1784.84</ele>
        <time>2016-07-09T10:05:35Z</time>
      </trkpt>
      <trkpt lat="45.45169" lon="5.92509">
        <ele>1791.87</ele>
        <time>2016-07-09T10:05:51Z</time>
      </trkpt>
      <trkpt lat="45.45171" lon="5.92483">
        <ele>1791.83</ele>
        <time>2016-07-09T10:06:15Z</time>
      </trkpt>
      <trkpt lat="45.45181" lon="5.9246">
        <ele>1793.87</ele>
        <time>2016-07-09T10:06:57Z</time>
      </trkpt>
      <trkpt lat="45.45192" lon="5.92439">
        <ele>1801.64</ele>
        <time>2016-07-09T10:07:16Z</time>
      </trkpt>
      <trkpt lat="45.45208" lon="5.92428">
        <ele>1802.66</ele>
        <time>2016-07-09T10:07:49Z</time>
      </trkpt>
      <trkpt lat="45.45225" lon="5.92415">
        <ele>1804.62</ele>
        <time>2016-07-09T10:08:28Z</time>
      </trkpt>
      <trkpt lat="45.45243" lon="5.92402">
        <ele>1808.84</ele>
        <time>2016-07-09T10:08:51Z</time>
      </trkpt>
      <trkpt lat="45.45247" lon="5.92399">
        <ele>1808.88</ele>
        <time>2016-07-09T10:09:19Z</time>
      </trkpt>
      <trkpt lat="45.45265" lon="5.92389">
        <ele>1810.88</ele>
        <time>2016-07-09T10:11:03Z</time>
      </trkpt>
      <trkpt lat="45.45283" lon="5.9237">
        <ele>1806.76</ele>
        <time>2016-07-09T10:14:47Z</time>
      </trkpt>
      <trkpt lat="45.45303" lon="5.9237">
        <ele>1813.64</ele>
        <time>2016-07-09T10:15:36Z</time>
      </trkpt>
      <trkpt lat="45.45321" lon="5.92366">
        <ele>1819.88</ele>
        <time>2016-07-09T10:16:10Z</time>
      </trkpt>
      <trkpt lat="45.4534" lon="5.92362">
        <ele>1813.79</ele>
        <time>2016-07-09T10:17:02Z</time>
      </trkpt>
      <trkpt lat="45.45359" lon="5.92367">
        <ele>1814.89</ele>
        <time>2016-07-09T10:17:21Z</time>
      </trkpt>
      <trkpt lat="45.45375" lon="5.92378">
        <ele>1825.87</ele>
        <time>2016-07-09T10:17:58Z</time>
      </trkpt>
      <trkpt lat="45.45393" lon="5.92366">
        <ele>1821.08</ele>
        <time>2016-07-09T10:18:26Z</time>
      </trkpt>
      <trkpt lat="45.45411" lon="5.92356">
        <ele>1818.73</ele>
        <time>2016-07-09T10:18:39Z</time>
      </trkpt>
      <trkpt lat="45.45426" lon="5.92342">
        <ele>1822.27</ele>
        <time>2016-07-09T10:19:03Z</time>
      </trkpt>
      <trkpt lat="45.45442" lon="5.92327">
        <ele>1821.59</ele>
        <time>2016-07-09T10:19:27Z</time>
      </trkpt>
      <trkpt lat="45.45458" lon="5.92314">
        <ele>1831.67</ele>
        <time>2016-07-09T10:20:22Z</time>
      </trkpt>
      <trkpt lat="45.45475" lon="5.92303">
        <ele>1836.03</ele>
        <time>2016-07-09T10:21:22Z</time>
      </trkpt>
      <trkpt lat="45.45476" lon="5.92277">
        <ele>1846.88</ele>
        <time>2016-07-09T10:23:55Z</time>
      </trkpt>
      <trkpt lat="45.45464" lon="5.92257">
        <ele>1850</ele>
        <time>2016-07-09T10:24:54Z</time>
      </trkpt>
      <trkpt lat="45.45446" lon="5.92262">
        <ele>1855.87</ele>
        <time>2016-07-09T10:25:24Z</time>
      </trkpt>
      <trkpt lat="45.45429" lon="5.92273">
        <ele>1856.09</ele>
        <time>2016-07-09T10:32:37Z</time>
      </trkpt>
      <trkpt lat="45.4543" lon="5.9227">
        <ele>1850.88</ele>
        <time>2016-07-09T11:06:50Z</time>
      </trkpt>
      <trkpt lat="45.45422" lon="5.92247">
        <ele>1862.79</ele>
        <time>2016-07-09T11:26:59Z</time>
      </trkpt>
      <trkpt lat="45.45402" lon="5.92247">
        <ele>1865.38</ele>
        <time>2016-07-09T11:27:47Z</time>
      </trkpt>
      <trkpt lat="45.45387" lon="5.92233">
        <ele>1860.92</ele>
        <time>2016-07-09T11:28:49Z</time>
      </trkpt>
      <trkpt lat="45.45368" lon="5.92235">
        <ele>1858.89</ele>
        <time>2016-07-09T11:29:42Z</time>
      </trkpt>
      <trkpt lat="45.45351" lon="5.92219">
        <ele>1856.91</ele>
        <time>2016-07-09T11:30:39Z</time>
      </trkpt>
      <trkpt lat="45.45329" lon="5.92205">
        <ele>1852.6</ele>
        <time>2016-07-09T11:32:51Z</time>
      </trkpt>
      <trkpt lat="45.4531" lon="5.92193">
        <ele>1853.43</ele>
        <time>2016-07-09T11:33:02Z</time>
      </trkpt>
      <trkpt lat="45.45292" lon="5.9218">
        <ele>1853.1</ele>
        <time>2016-07-09T11:33:19Z</time>
      </trkpt>
      <trkpt lat="45.45272" lon="5.9217">
        <ele>1852.63</ele>
        <time>2016-07-09T11:33:43Z</time>
      </trkpt>
      <trkpt lat="45.45252" lon="5.92161">
        <ele>1848.72</ele>
        <time>2016-07-09T11:34:13Z</time>
      </trkpt>
      <trkpt lat="45.45238" lon="5.92143">
        <ele>1853.84</ele>
        <time>2016-07-09T11:36:15Z</time>
      </trkpt>
      <trkpt lat="45.45229" lon="5.92124">
        <ele>1858.88</ele>
        <time>2016-07-09T11:37:22Z</time>
      </trkpt>
      <trkpt lat="45.45214" lon="5.92104">
        <ele>1849.48</ele>
        <time>2016-07-09T11:40:25Z</time>
      </trkpt>
      <trkpt lat="45.45205" lon="5.92081">
        <ele>1854.87</ele>
        <time>2016-07-09T11:40:33Z</time>
      </trkpt>
      <trkpt lat="45.45189" lon="5.92067">
        <ele>1857.81</ele>
        <time>2016-07-09T11:44:34Z</time>
      </trkpt>
      <trkpt lat="45.4517" lon="5.92068">
        <ele>1859.68</ele>
        <time>2016-07-09T11:44:45Z</time>
      </trkpt>
      <trkpt lat="45.45152" lon="5.92064">
        <ele>1835.13</ele>
        <time>2016-07-09T11:46:34Z</time>
      </trkpt>
      <trkpt lat="45.45138" lon="5.92043">
        <ele>1827.68</ele>
        <time>2016-07-09T11:47:54Z</time>
      </trkpt>
      <trkpt lat="45.45124" lon="5.92027">
        <ele>1814.92</ele>
        <time>2016-07-09T11:49:16Z</time>
      </trkpt>
      <trkpt lat="45.45115" lon="5.92004">
        <ele>1808.03</ele>
        <time>2016-07-09T11:49:43Z</time>
      </trkpt>
      <trkpt lat="45.451" lon="5.91988">
        <ele>1797.93</ele>
        <time>2016-07-09T11:49:58Z</time>
      </trkpt>
      <trkpt lat="45.4512" lon="5.91983">
        <ele>1792.89</ele>
        <time>2016-07-09T11:50:40Z</time>
      </trkpt>
      <trkpt lat="45.45131" lon="5.91961">
        <ele>1782.65</ele>
        <time>2016-07-09T11:52:26Z</time>
      </trkpt>
      <trkpt lat="45.45149" lon="5.91952">
        <ele>1785.44</ele>
        <time>2016-07-09T11:53:27Z</time>
      </trkpt>
      <trkpt lat="45.45149" lon="5.91926">
        <ele>1770.25</ele>
        <time>2016-07-09T11:56:27Z</time>
      </trkpt>
      <trkpt lat="45.45135" lon="5.91905">
        <ele>1761.09</ele>
        <time>2016-07-09T11:56:46Z</time>
      </trkpt>
      <trkpt lat="45.45154" lon="5.91908">
        <ele>1761.48</ele>
        <time>2016-07-09T11:57:08Z</time>
      </trkpt>
      <trkpt lat="45.45142" lon="5.91886">
        <ele>1744.88</ele>
        <time>2016-07-09T11:57:35Z</time>
      </trkpt>
      <trkpt lat="45.45135" lon="5.91875">
        <ele>1734.88</ele>
        <time>2016-07-09T12:00:45Z</time>
      </trkpt>
      <trkpt lat="45.45118" lon="5.91866">
        <ele>1734.12</ele>
        <time>2016-07-09T12:02:48Z</time>
      </trkpt>
      <trkpt lat="45.45096" lon="5.91864">
        <ele>1728.29</ele>
        <time>2016-07-09T12:02:50Z</time>
      </trkpt>
      <trkpt lat="45.45069" lon="5.91858">
        <ele>1719.09</ele>
        <time>2016-07-09T12:02:52Z</time>
      </trkpt>
      <trkpt lat="45.45049" lon="5.9185">
        <ele>1716.58</ele>
        <time>2016-07-09T12:02:55Z</time>
      </trkpt>
      <trkpt lat="45.45037" lon="5.91831">
        <ele>1719.64</ele>
        <time>2016-07-09T12:02:59Z</time>
      </trkpt>
      <trkpt lat="45.45022" lon="5.91808">
        <ele>1717.53</ele>
        <time>2016-07-09T12:03:05Z</time>
      </trkpt>
      <trkpt lat="45.45013" lon="5.91785">
        <ele>1723.14</ele>
        <time>2016-07-09T12:04:56Z</time>
      </trkpt>
      <trkpt lat="45.45" lon="5.91766">
        <ele>1718.04</ele>
        <time>2016-07-09T12:05:15Z</time>
      </trkpt>
      <trkpt lat="45.44978" lon="5.91769">
        <ele>1712.68</ele>
        <time>2016-07-09T12:07:57Z</time>
      </trkpt>
      <trkpt lat="45.44954" lon="5.91738">
        <ele>1713.19</ele>
        <time>2016-07-09T12:07:59Z</time>
      </trkpt>
      <trkpt lat="45.44958" lon="5.91767">
        <ele>1715.47</ele>
        <time>2016-07-09T12:08:05Z</time>
      </trkpt>
      <trkpt lat="45.45002" lon="5.91784">
        <ele>1687.12</ele>
        <time>2016-07-09T12:14:58Z</time>
      </trkpt>
      <trkpt lat="45.45" lon="5.91753">
        <ele>1690.98</ele>
        <time>2016-07-09T12:15:05Z</time>
      </trkpt>
      <trkpt lat="45.45013" lon="5.91734">
        <ele>1688.44</ele>
        <time>2016-07-09T12:15:26Z</time>
      </trkpt>
      <trkpt lat="45.44997" lon="5.91719">
        <ele>1683</ele>
        <time>2016-07-09T12:16:01Z</time>
      </trkpt>
      <trkpt lat="45.44982" lon="5.91704">
        <ele>1675.64</ele>
        <time>2016-07-09T12:16:16Z</time>
      </trkpt>
      <trkpt lat="45.44991" lon="5.91729">
        <ele>1676.68</ele>
        <time>2016-07-09T12:16:40Z</time>
      </trkpt>
      <trkpt lat="45.4498" lon="5.91707">
        <ele>1671.28</ele>
        <time>2016-07-09T12:19:43Z</time>
      </trkpt>
      <trkpt lat="45.44975" lon="5.91681">
        <ele>1661.91</ele>
        <time>2016-07-09T12:21:02Z</time>
      </trkpt>
      <trkpt lat="45.44981" lon="5.91655">
        <ele>1648.87</ele>
        <time>2016-07-09T12:22:05Z</time>
      </trkpt>
      <trkpt lat="45.44985" lon="5.91629">
        <ele>1634.88</ele>
        <time>2016-07-09T12:22:31Z</time>
      </trkpt>
      <trkpt lat="45.44969" lon="5.91614">
        <ele>1620.29</ele>
        <time>2016-07-09T12:22:53Z</time>
      </trkpt>
      <trkpt lat="45.44983" lon="5.91598">
        <ele>1612.88</ele>
        <time>2016-07-09T12:23:52Z</time>
      </trkpt>
      <trkpt lat="45.44998" lon="5.91581">
        <ele>1606.69</ele>
        <time>2016-07-09T12:24:08Z</time>
      </trkpt>
      <trkpt lat="45.45002" lon="5.91553">
        <ele>1595.12</ele>
        <time>2016-07-09T12:24:32Z</time>
      </trkpt>
      <trkpt lat="45.45004" lon="5.91527">
        <ele>1588.27</ele>
        <time>2016-07-09T12:24:53Z</time>
      </trkpt>
      <trkpt lat="45.45016" lon="5.91505">
        <ele>1579.84</ele>
        <time>2016-07-09T12:25:10Z</time>
      </trkpt>
      <trkpt lat="45.45032" lon="5.91493">
        <ele>1574.24</ele>
        <time>2016-07-09T12:25:35Z</time>
      </trkpt>
      <trkpt lat="45.4503" lon="5.91466">
        <ele>1567.35</ele>
        <time>2016-07-09T12:28:05Z</time>
      </trkpt>
      <trkpt lat="45.45035" lon="5.9144">
        <ele>1548.32</ele>
        <time>2016-07-09T12:28:56Z</time>
      </trkpt>
      <trkpt lat="45.4505" lon="5.91424">
        <ele>1545.8</ele>
        <time>2016-07-09T12:31:19Z</time>
      </trkpt>
      <trkpt lat="45.45061" lon="5.91402">
        <ele>1538.9</ele>
        <time>2016-07-09T12:31:53Z</time>
      </trkpt>
      <trkpt lat="45.45078" lon="5.91393">
        <ele>1538.12</ele>
        <time>2016-07-09T12:32:09Z</time>
      </trkpt>
      <trkpt lat="45.45102" lon="5.91376">
        <ele>1523.44</ele>
        <time>2016-07-09T12:33:21Z</time>
      </trkpt>
      <trkpt lat="45.45084" lon="5.91368">
        <ele>1518.14</ele>
        <time>2016-07-09T12:33:29Z</time>
      </trkpt>
      <trkpt lat="45.45097" lon="5.91348">
        <ele>1497.88</ele>
        <time>2016-07-09T12:34:20Z</time>
      </trkpt>
      <trkpt lat="45.45108" lon="5.91327">
        <ele>1492.13</ele>
        <time>2016-07-09T12:34:34Z</time>
      </trkpt>
      <trkpt lat="45.45126" lon="5.91332">
        <ele>1483.66</ele>
        <time>2016-07-09T12:35:03Z</time>
      </trkpt>
      <trkpt lat="45.45144" lon="5.91324">
        <ele>1470.88</ele>
        <time>2016-07-09T12:35:19Z</time>
      </trkpt>
      <trkpt lat="45.45161" lon="5.9131">
        <ele>1465.06</ele>
        <time>2016-07-09T12:35:56Z</time>
      </trkpt>
      <trkpt lat="45.45179" lon="5.91311">
        <ele>1460.07</ele>
        <time>2016-07-09T12:36:20Z</time>
      </trkpt>
      <trkpt lat="45.45197" lon="5.91306">
        <ele>1459.74</ele>
        <time>2016-07-09T12:36:57Z</time>
      </trkpt>
      <trkpt lat="45.45207" lon="5.91284">
        <ele>1450.88</ele>
        <time>2016-07-09T12:37:43Z</time>
      </trkpt>
      <trkpt lat="45.45216" lon="5.9126">
        <ele>1450.67</ele>
        <time>2016-07-09T12:38:21Z</time>
      </trkpt>
      <trkpt lat="45.45207" lon="5.91238">
        <ele>1448.5</ele>
        <time>2016-07-09T12:39:34Z</time>
      </trkpt>
      <trkpt lat="45.45198" lon="5.91214">
        <ele>1440.84</ele>
        <time>2016-07-09T12:39:45Z</time>
      </trkpt>
      <trkpt lat="45.45189" lon="5.91187">
        <ele>1442.05</ele>
        <time>2016-07-09T12:40:05Z</time>
      </trkpt>
      <trkpt lat="45.45178" lon="5.91164">
        <ele>1443.15</ele>
        <time>2016-07-09T12:40:21Z</time>
      </trkpt>
      <trkpt lat="45.45163" lon="5.91149">
        <ele>1440.92</ele>
        <time>2016-07-09T12:40:46Z</time>
      </trkpt>
      <trkpt lat="45.45163" lon="5.91121">
        <ele>1425.9</ele>
        <time>2016-07-09T12:41:15Z</time>
      </trkpt>
      <trkpt lat="45.45152" lon="5.91098">
        <ele>1419.11</ele>
        <time>2016-07-09T12:41:41Z</time>
      </trkpt>
      <trkpt lat="45.45139" lon="5.91079">
        <ele>1407.31</ele>
        <time>2016-07-09T12:42:13Z</time>
      </trkpt>
      <trkpt lat="45.45125" lon="5.9106">
        <ele>1401.24</ele>
        <time>2016-07-09T12:42:45Z</time>
      </trkpt>
      <trkpt lat="45.45114" lon="5.91037">
        <ele>1388.16</ele>
        <time>2016-07-09T12:42:55Z</time>
      </trkpt>
      <trkpt lat="45.45107" lon="5.91014">
        <ele>1374.31</ele>
        <time>2016-07-09T12:43:20Z</time>
      </trkpt>
      <trkpt lat="45.45094" lon="5.90994">
        <ele>1373.08</ele>
        <time>2016-07-09T12:43:39Z</time>
      </trkpt>
      <trkpt lat="45.45078" lon="5.90975">
        <ele>1377.68</ele>
        <time>2016-07-09T12:44:08Z</time>
      </trkpt>
      <trkpt lat="45.45063" lon="5.90961">
        <ele>1370.84</ele>
        <time>2016-07-09T12:44:14Z</time>
      </trkpt>
      <trkpt lat="45.45044" lon="5.9095">
        <ele>1368</ele>
        <time>2016-07-09T12:44:44Z</time>
      </trkpt>
      <trkpt lat="45.45026" lon="5.90941">
        <ele>1357.89</ele>
        <time>2016-07-09T12:45:01Z</time>
      </trkpt>
      <trkpt lat="45.45002" lon="5.9094">
        <ele>1361.73</ele>
        <time>2016-07-09T12:45:28Z</time>
      </trkpt>
      <trkpt lat="45.44981" lon="5.90937">
        <ele>1354.37</ele>
        <time>2016-07-09T12:45:58Z</time>
      </trkpt>
      <trkpt lat="45.44963" lon="5.90936">
        <ele>1347.48</ele>
        <time>2016-07-09T12:46:27Z</time>
      </trkpt>
      <trkpt lat="45.44944" lon="5.90935">
        <ele>1350.86</ele>
        <time>2016-07-09T12:46:36Z</time>
      </trkpt>
      <trkpt lat="45.44925" lon="5.90918">
        <ele>1341.89</ele>
        <time>2016-07-09T12:47:06Z</time>
      </trkpt>
      <trkpt lat="45.44906" lon="5.90919">
        <ele>1338.92</ele>
        <time>2016-07-09T12:47:14Z</time>
      </trkpt>
      <trkpt lat="45.44888" lon="5.90912">
        <ele>1321.93</ele>
        <time>2016-07-09T12:48:06Z</time>
      </trkpt>
      <trkpt lat="45.44873" lon="5.90898">
        <ele>1317.82</ele>
        <time>2016-07-09T12:48:18Z</time>
      </trkpt>
      <trkpt lat="45.44855" lon="5.90893">
        <ele>1310.93</ele>
        <time>2016-07-09T12:48:33Z</time>
      </trkpt>
      <trkpt lat="45.44838" lon="5.90882">
        <ele>1306.79</ele>
        <time>2016-07-09T12:49:11Z</time>
      </trkpt>
      <trkpt lat="45.4482" lon="5.90884">
        <ele>1302.98</ele>
        <time>2016-07-09T12:49:25Z</time>
      </trkpt>
      <trkpt lat="45.44804" lon="5.90872">
        <ele>1301.9</ele>
        <time>2016-07-09T12:49:41Z</time>
      </trkpt>
      <trkpt lat="45.44789" lon="5.90858">
        <ele>1301.08</ele>
        <time>2016-07-09T12:50:16Z</time>
      </trkpt>
      <trkpt lat="45.44773" lon="5.90843">
        <ele>1288.72</ele>
        <time>2016-07-09T12:51:19Z</time>
      </trkpt>
      <trkpt lat="45.44756" lon="5.90833">
        <ele>1280.92</ele>
        <time>2016-07-09T12:51:33Z</time>
      </trkpt>
      <trkpt lat="45.44751" lon="5.90808">
        <ele>1272.71</ele>
        <time>2016-07-09T12:51:53Z</time>
      </trkpt>
      <trkpt lat="45.44745" lon="5.90783">
        <ele>1256.98</ele>
        <time>2016-07-09T12:52:19Z</time>
      </trkpt>
      <trkpt lat="45.44738" lon="5.90758">
        <ele>1250.16</ele>
        <time>2016-07-09T12:52:37Z</time>
      </trkpt>
      <trkpt lat="45.44732" lon="5.90733">
        <ele>1252.88</ele>
        <time>2016-07-09T12:52:51Z</time>
      </trkpt>
      <trkpt lat="45.44734" lon="5.90707">
        <ele>1243.88</ele>
        <time>2016-07-09T12:53:13Z</time>
      </trkpt>
      <trkpt lat="45.44738" lon="5.90682">
        <ele>1245.88</ele>
        <time>2016-07-09T12:53:33Z</time>
      </trkpt>
      <trkpt lat="45.44741" lon="5.90656">
        <ele>1240.96</ele>
        <time>2016-07-09T12:53:50Z</time>
      </trkpt>
      <trkpt lat="45.44741" lon="5.9063">
        <ele>1237.88</ele>
        <time>2016-07-09T12:54:08Z</time>
      </trkpt>
      <trkpt lat="45.44747" lon="5.90604">
        <ele>1228.89</ele>
        <time>2016-07-09T12:55:35Z</time>
      </trkpt>
      <trkpt lat="45.44751" lon="5.90578">
        <ele>1232.83</ele>
        <time>2016-07-09T12:55:50Z</time>
      </trkpt>
      <trkpt lat="45.44754" lon="5.90553">
        <ele>1226.84</ele>
        <time>2016-07-09T12:56:06Z</time>
      </trkpt>
      <trkpt lat="45.44761" lon="5.90529">
        <ele>1222.24</ele>
        <time>2016-07-09T12:56:25Z</time>
      </trkpt>
      <trkpt lat="45.44772" lon="5.90509">
        <ele>1219.12</ele>
        <time>2016-07-09T12:56:40Z</time>
      </trkpt>
      <trkpt lat="45.44784" lon="5.90489">
        <ele>1218.16</ele>
        <time>2016-07-09T12:56:56Z</time>
      </trkpt>
      <trkpt lat="45.44766" lon="5.90483">
        <ele>1207.92</ele>
        <time>2016-07-09T12:57:29Z</time>
      </trkpt>
      <trkpt lat="45.44748" lon="5.90489">
        <ele>1207.84</ele>
        <time>2016-07-09T12:57:44Z</time>
      </trkpt>
      <trkpt lat="45.4473" lon="5.90487">
        <ele>1206.44</ele>
        <time>2016-07-09T12:58:08Z</time>
      </trkpt>
      <trkpt lat="45.4471" lon="5.90489">
        <ele>1200.72</ele>
        <time>2016-07-09T12:58:33Z</time>
      </trkpt>
      <trkpt lat="45.44692" lon="5.9049">
        <ele>1196.88</ele>
        <time>2016-07-09T12:58:51Z</time>
      </trkpt>
      <trkpt lat="45.44675" lon="5.90499">
        <ele>1190.29</ele>
        <time>2016-07-09T12:59:14Z</time>
      </trkpt>
      <trkpt lat="45.44669" lon="5.90524">
        <ele>1189.67</ele>
        <time>2016-07-09T12:59:42Z</time>
      </trkpt>
      <trkpt lat="45.44665" lon="5.9055">
        <ele>1192.64</ele>
        <time>2016-07-09T13:00:01Z</time>
      </trkpt>
      <trkpt lat="45.44659" lon="5.90574">
        <ele>1190.88</ele>
        <time>2016-07-09T13:00:21Z</time>
      </trkpt>
      <trkpt lat="45.44651" lon="5.90599">
        <ele>1184.91</ele>
        <time>2016-07-09T13:00:41Z</time>
      </trkpt>
      <trkpt lat="45.44633" lon="5.90613">
        <ele>1177.08</ele>
        <time>2016-07-09T13:01:10Z</time>
      </trkpt>
      <trkpt lat="45.4462" lon="5.90634">
        <ele>1174.09</ele>
        <time>2016-07-09T13:01:27Z</time>
      </trkpt>
      <trkpt lat="45.44602" lon="5.9064">
        <ele>1167.89</ele>
        <time>2016-07-09T13:01:47Z</time>
      </trkpt>
      <trkpt lat="45.44588" lon="5.90623">
        <ele>1157.77</ele>
        <time>2016-07-09T13:02:21Z</time>
      </trkpt>
      <trkpt lat="45.4457" lon="5.9062">
        <ele>1156.91</ele>
        <time>2016-07-09T13:02:53Z</time>
      </trkpt>
      <trkpt lat="45.44563" lon="5.90645">
        <ele>1158.84</ele>
        <time>2016-07-09T13:03:22Z</time>
      </trkpt>
      <trkpt lat="45.44553" lon="5.90668">
        <ele>1159.12</ele>
        <time>2016-07-09T13:03:51Z</time>
      </trkpt>
      <trkpt lat="45.44538" lon="5.90683">
        <ele>1152.08</ele>
        <time>2016-07-09T13:04:07Z</time>
      </trkpt>
      <trkpt lat="45.44521" lon="5.90696">
        <ele>1146.04</ele>
        <time>2016-07-09T13:04:35Z</time>
      </trkpt>
      <trkpt lat="45.44507" lon="5.90712">
        <ele>1145.88</ele>
        <time>2016-07-09T13:04:59Z</time>
      </trkpt>
      <trkpt lat="45.44494" lon="5.90731">
        <ele>1148.87</ele>
        <time>2016-07-09T13:05:25Z</time>
      </trkpt>
      <trkpt lat="45.44477" lon="5.90748">
        <ele>1143.08</ele>
        <time>2016-07-09T13:05:56Z</time>
      </trkpt>
      <trkpt lat="45.44458" lon="5.90753">
        <ele>1135.88</ele>
        <time>2016-07-09T13:06:08Z</time>
      </trkpt>
      <trkpt lat="45.44441" lon="5.90766">
        <ele>1129.09</ele>
        <time>2016-07-09T13:06:17Z</time>
      </trkpt>
      <trkpt lat="45.44422" lon="5.9077">
        <ele>1130.07</ele>
        <time>2016-07-09T13:06:42Z</time>
      </trkpt>
      <trkpt lat="45.44418" lon="5.90743">
        <ele>1131.88</ele>
        <time>2016-07-09T13:06:59Z</time>
      </trkpt>
      <trkpt lat="45.44417" lon="5.90718">
        <ele>1129.68</ele>
        <time>2016-07-09T13:08:23Z</time>
      </trkpt>
      <trkpt lat="45.44407" lon="5.90695">
        <ele>1118.72</ele>
        <time>2016-07-09T13:08:52Z</time>
      </trkpt>
      <trkpt lat="45.44389" lon="5.90692">
        <ele>1102.84</ele>
        <time>2016-07-09T13:09:15Z</time>
      </trkpt>
      <trkpt lat="45.44371" lon="5.90689">
        <ele>1101.89</ele>
        <time>2016-07-09T13:09:44Z</time>
      </trkpt>
      <trkpt lat="45.4436" lon="5.90668">
        <ele>1108.67</ele>
        <time>2016-07-09T13:10:02Z</time>
      </trkpt>
      <trkpt lat="45.44343" lon="5.90659">
        <ele>1104.74</ele>
        <time>2016-07-09T13:10:27Z</time>
      </trkpt>
      <trkpt lat="45.44327" lon="5.90644">
        <ele>1100.91</ele>
        <time>2016-07-09T13:10:46Z</time>
      </trkpt>
      <trkpt lat="45.44313" lon="5.90626">
        <ele>1100.84</ele>
        <time>2016-07-09T13:11:07Z</time>
      </trkpt>
      <trkpt lat="45.44294" lon="5.90619">
        <ele>1099.92</ele>
        <time>2016-07-09T13:11:40Z</time>
      </trkpt>
      <trkpt lat="45.44277" lon="5.90607">
        <ele>1099.05</ele>
        <time>2016-07-09T13:11:57Z</time>
      </trkpt>
      <trkpt lat="45.44261" lon="5.90596">
        <ele>1094.89</ele>
        <time>2016-07-09T13:12:17Z</time>
      </trkpt>
      <trkpt lat="45.44244" lon="5.90582">
        <ele>1093.68</ele>
        <time>2016-07-09T13:13:09Z</time>
      </trkpt>
      <trkpt lat="45.44226" lon="5.90574">
        <ele>1093.05</ele>
        <time>2016-07-09T13:13:25Z</time>
      </trkpt>
      <trkpt lat="45.44208" lon="5.90569">
        <ele>1097.84</ele>
        <time>2016-07-09T13:13:43Z</time>
      </trkpt>
      <trkpt lat="45.44189" lon="5.9057">
        <ele>1101.84</ele>
        <time>2016-07-09T13:14:02Z</time>
      </trkpt>
      <trkpt lat="45.44171" lon="5.90568">
        <ele>1104.72</ele>
        <time>2016-07-09T13:14:30Z</time>
      </trkpt>
      <trkpt lat="45.44152" lon="5.90577">
        <ele>1106.92</ele>
        <time>2016-07-09T13:14:50Z</time>
      </trkpt>
      <trkpt lat="45.44134" lon="5.90589">
        <ele>1113.63</ele>
        <time>2016-07-09T13:15:34Z</time>
      </trkpt>
    </trkseg>
  </trk>
</gpx>